sensor_id;sensor_type;location;lat;lon;timestamp;pressure;altitude;pressure_sealevel;temperature;humidity
45369;BME280;51342;55.250;37.668;2023-03-13T00:01:59;98292.66;;;-5.17;72.52
45369;BME280;51342;55.250;37.668;2023-03-13T00:04:31;98290.75;;;-5.19;72.57
45369;BME280;51342;55.250;37.668;2023-03-13T00:07:02;98302.03;;;-5.16;72.47
45369;BME280;51342;55.250;37.668;2023-03-13T00:09:34;98302.63;;;-5.18;72.46
45369;BME280;51342;55.250;37.668;2023-03-13T00:12:06;98301.88;;;-5.17;72.46
45369;BME280;51342;55.250;37.668;2023-03-13T00:14:37;98305.56;;;-5.14;72.52
45369;BME280;51342;55.250;37.668;2023-03-13T00:17:09;98307.94;;;-5.07;72.49
45369;BME280;51342;55.250;37.668;2023-03-13T00:19:40;98312.66;;;-5.01;72.55
45369;BME280;51342;55.250;37.668;2023-03-13T00:22:11;98321.53;;;-4.96;72.57
45369;BME280;51342;55.250;37.668;2023-03-13T00:24:44;98313.97;;;-4.96;72.55
45369;BME280;51342;55.250;37.668;2023-03-13T00:27:16;98327.47;;;-4.87;72.46
45369;BME280;51342;55.250;37.668;2023-03-13T00:29:47;98324.19;;;-4.86;72.49
45369;BME280;51342;55.250;37.668;2023-03-13T00:32:20;98330.56;;;-4.81;72.62
45369;BME280;51342;55.250;37.668;2023-03-13T00:34:52;98340.19;;;-4.76;72.64
45369;BME280;51342;55.250;37.668;2023-03-13T00:37:23;98342.13;;;-4.74;72.77
45369;BME280;51342;55.250;37.668;2023-03-13T00:39:54;98332.78;;;-4.75;72.73
45369;BME280;51342;55.250;37.668;2023-03-13T00:42:26;98343.56;;;-4.67;72.82
45369;BME280;51342;55.250;37.668;2023-03-13T00:44:59;98347.88;;;-4.66;72.79
45369;BME280;51342;55.250;37.668;2023-03-13T00:47:31;98354.56;;;-4.67;72.79
45369;BME280;51342;55.250;37.668;2023-03-13T00:50:02;98353.22;;;-4.72;72.92
45369;BME280;51342;55.250;37.668;2023-03-13T00:52:33;98360.22;;;-4.78;72.90
45369;BME280;51342;55.250;37.668;2023-03-13T00:55:06;98370.78;;;-4.82;73.12
45369;BME280;51342;55.250;37.668;2023-03-13T00:57:37;98366.06;;;-4.88;72.95
45369;BME280;51342;55.250;37.668;2023-03-13T01:00:09;98377.47;;;-4.91;73.05
45369;BME280;51342;55.250;37.668;2023-03-13T01:02:42;98387.72;;;-4.98;73.04
45369;BME280;51342;55.250;37.668;2023-03-13T01:05:14;98389.50;;;-5.06;73.10
45369;BME280;51342;55.250;37.668;2023-03-13T01:07:45;98400.06;;;-5.10;73.18
45369;BME280;51342;55.250;37.668;2023-03-13T01:10:17;98396.91;;;-5.16;73.08
45369;BME280;51342;55.250;37.668;2023-03-13T01:12:48;98398.13;;;-5.21;73.29
45369;BME280;51342;55.250;37.668;2023-03-13T01:15:20;98401.38;;;-5.22;73.09
45369;BME280;51342;55.250;37.668;2023-03-13T01:17:52;98412.19;;;-5.23;73.22
45369;BME280;51342;55.250;37.668;2023-03-13T01:20:23;98419.03;;;-5.22;73.18
45369;BME280;51342;55.250;37.668;2023-03-13T01:22:55;98425.69;;;-5.23;73.18
45369;BME280;51342;55.250;37.668;2023-03-13T01:25:26;98436.66;;;-5.22;73.24
45369;BME280;51342;55.250;37.668;2023-03-13T01:27:58;98440.81;;;-5.23;73.29
45369;BME280;51342;55.250;37.668;2023-03-13T01:30:29;98437.41;;;-5.23;73.31
45369;BME280;51342;55.250;37.668;2023-03-13T01:33:00;98443.19;;;-5.24;73.17
45369;BME280;51342;55.250;37.668;2023-03-13T01:35:32;98446.34;;;-5.27;73.34
45369;BME280;51342;55.250;37.668;2023-03-13T01:38:04;98439.19;;;-5.31;73.10
45369;BME280;51342;55.250;37.668;2023-03-13T01:40:43;98451.50;;;-5.34;73.04
45369;BME280;51342;55.250;37.668;2023-03-13T01:43:21;98455.50;;;-5.36;73.12
45369;BME280;51342;55.250;37.668;2023-03-13T01:49:19;98477.72;;;-5.49;73.11
45369;BME280;51342;55.250;37.668;2023-03-13T01:52:09;98472.78;;;-5.56;73.15
45369;BME280;51342;55.250;37.668;2023-03-13T01:55:03;98492.06;;;-5.57;73.06
45369;BME280;51342;55.250;37.668;2023-03-13T01:57:45;98496.97;;;-5.58;73.05
45369;BME280;51342;55.250;37.668;2023-03-13T02:00:26;98509.25;;;-5.62;73.07
45369;BME280;51342;55.250;37.668;2023-03-13T02:03:04;98510.25;;;-5.68;72.95
45369;BME280;51342;55.250;37.668;2023-03-13T02:05:40;98520.34;;;-5.68;73.16
45369;BME280;51342;55.250;37.668;2023-03-13T02:08:32;98520.78;;;-5.72;73.15
45369;BME280;51342;55.250;37.668;2023-03-13T02:11:18;98527.47;;;-5.73;73.20
45369;BME280;51342;55.250;37.668;2023-03-13T02:13:53;98529.81;;;-5.74;73.15
45369;BME280;51342;55.250;37.668;2023-03-13T02:16:26;98533.06;;;-5.75;73.34
45369;BME280;51342;55.250;37.668;2023-03-13T02:18:57;98536.88;;;-5.79;73.40
45369;BME280;51342;55.250;37.668;2023-03-13T02:24:57;98550.03;;;-5.90;73.21
45369;BME280;51342;55.250;37.668;2023-03-13T02:27:30;98567.06;;;-5.96;73.39
45369;BME280;51342;55.250;37.668;2023-03-13T02:30:03;98567.06;;;-5.96;73.43
45369;BME280;51342;55.250;37.668;2023-03-13T02:32:35;98569.44;;;-5.98;73.56
45369;BME280;51342;55.250;37.668;2023-03-13T02:35:12;98582.03;;;-5.98;73.41
45369;BME280;51342;55.250;37.668;2023-03-13T02:37:55;98591.22;;;-5.98;73.31
45369;BME280;51342;55.250;37.668;2023-03-13T02:40:31;98594.94;;;-5.95;73.33
45369;BME280;51342;55.250;37.668;2023-03-13T02:43:10;98600.25;;;-6.00;73.26
45369;BME280;51342;55.250;37.668;2023-03-13T02:46:04;98609.84;;;-6.05;73.42
45369;BME280;51342;55.250;37.668;2023-03-13T02:48:43;98612.50;;;-6.03;73.35
45369;BME280;51342;55.250;37.668;2023-03-13T02:51:41;98628.34;;;-6.04;73.42
45369;BME280;51342;55.250;37.668;2023-03-13T02:54:22;98628.50;;;-6.03;73.51
45369;BME280;51342;55.250;37.668;2023-03-13T02:56:56;98634.59;;;-6.01;73.37
45369;BME280;51342;55.250;37.668;2023-03-13T02:59:29;98632.97;;;-6.00;73.45
45369;BME280;51342;55.250;37.668;2023-03-13T03:02:02;98635.06;;;-5.96;73.44
45369;BME280;51342;55.250;37.668;2023-03-13T03:04:34;98641.47;;;-5.91;73.50
45369;BME280;51342;55.250;37.668;2023-03-13T03:07:05;98643.38;;;-5.89;73.49
45369;BME280;51342;55.250;37.668;2023-03-13T03:09:37;98643.53;;;-5.87;73.47
45369;BME280;51342;55.250;37.668;2023-03-13T03:12:14;98638.66;;;-5.86;73.38
45369;BME280;51342;55.250;37.668;2023-03-13T03:14:46;98637.59;;;-5.88;73.45
45369;BME280;51342;55.250;37.668;2023-03-13T03:17:20;98648.25;;;-5.90;73.35
45369;BME280;51342;55.250;37.668;2023-03-13T03:19:52;98650.63;;;-5.92;73.48
45369;BME280;51342;55.250;37.668;2023-03-13T03:22:24;98656.28;;;-5.94;73.45
45369;BME280;51342;55.250;37.668;2023-03-13T03:24:56;98660.97;;;-5.97;73.46
45369;BME280;51342;55.250;37.668;2023-03-13T03:27:28;98661.22;;;-6.03;73.55
45369;BME280;51342;55.250;37.668;2023-03-13T03:30:00;98669.19;;;-6.07;73.46
45369;BME280;51342;55.250;37.668;2023-03-13T03:32:32;98669.63;;;-6.11;73.32
45369;BME280;51342;55.250;37.668;2023-03-13T03:35:04;98671.50;;;-6.17;73.45
45369;BME280;51342;55.250;37.668;2023-03-13T03:37:36;98683.75;;;-6.20;73.37
45369;BME280;51342;55.250;37.668;2023-03-13T03:40:09;98680.75;;;-6.25;73.43
45369;BME280;51342;55.250;37.668;2023-03-13T03:42:41;98684.25;;;-6.31;73.51
45369;BME280;51342;55.250;37.668;2023-03-13T03:45:12;98691.31;;;-6.36;73.50
45369;BME280;51342;55.250;37.668;2023-03-13T03:47:44;98683.59;;;-6.37;73.28
45369;BME280;51342;55.250;37.668;2023-03-13T03:50:15;98690.84;;;-6.41;73.33
45369;BME280;51342;55.250;37.668;2023-03-13T03:52:57;98694.16;;;-6.49;73.29
45369;BME280;51342;55.250;37.668;2023-03-13T03:55:30;98691.00;;;-6.55;73.22
45369;BME280;51342;55.250;37.668;2023-03-13T03:58:01;98692.22;;;-6.67;73.26
45369;BME280;51342;55.250;37.668;2023-03-13T04:00:51;98693.59;;;-6.78;73.47
45369;BME280;51342;55.250;37.668;2023-03-13T04:03:23;98699.50;;;-6.77;73.58
45369;BME280;51342;55.250;37.668;2023-03-13T04:05:55;98692.78;;;-6.85;73.41
45369;BME280;51342;55.250;37.668;2023-03-13T04:08:28;98707.66;;;-6.87;73.26
45369;BME280;51342;55.250;37.668;2023-03-13T04:11:01;98715.44;;;-6.93;73.20
45369;BME280;51342;55.250;37.668;2023-03-13T04:13:35;98719.78;;;-6.91;73.45
45369;BME280;51342;55.250;37.668;2023-03-13T04:16:09;98720.00;;;-6.81;73.23
45369;BME280;51342;55.250;37.668;2023-03-13T04:18:41;98723.13;;;-6.68;73.25
45369;BME280;51342;55.250;37.668;2023-03-13T04:21:13;98725.72;;;-6.59;73.03
45369;BME280;51342;55.250;37.668;2023-03-13T04:23:52;98733.88;;;-6.46;73.16
45369;BME280;51342;55.250;37.668;2023-03-13T04:26:24;98740.34;;;-6.32;72.94
45369;BME280;51342;55.250;37.668;2023-03-13T04:28:57;98744.91;;;-6.21;72.79
45369;BME280;51342;55.250;37.668;2023-03-13T04:31:53;98741.41;;;-6.15;72.75
45369;BME280;51342;55.250;37.668;2023-03-13T04:34:43;98749.34;;;-6.03;72.73
45369;BME280;51342;55.250;37.668;2023-03-13T04:37:44;98757.44;;;-5.90;72.83
45369;BME280;51342;55.250;37.668;2023-03-13T04:40:48;98756.94;;;-5.78;72.33
45369;BME280;51342;55.250;37.668;2023-03-13T04:43:40;98768.13;;;-5.68;72.55
45369;BME280;51342;55.250;37.668;2023-03-13T04:46:30;98771.00;;;-5.56;72.52
45369;BME280;51342;55.250;37.668;2023-03-13T04:49:20;98773.47;;;-5.49;72.35
45369;BME280;51342;55.250;37.668;2023-03-13T04:52:02;98781.94;;;-5.40;72.41
45369;BME280;51342;55.250;37.668;2023-03-13T04:54:56;98790.47;;;-5.30;72.48
45369;BME280;51342;55.250;37.668;2023-03-13T04:57:54;98796.63;;;-5.20;72.27
45369;BME280;51342;55.250;37.668;2023-03-13T05:00:41;98804.22;;;-5.11;72.25
45369;BME280;51342;55.250;37.668;2023-03-13T05:03:20;98813.97;;;-4.98;72.06
45369;BME280;51342;55.250;37.668;2023-03-13T05:05:59;98815.78;;;-4.89;72.11
45369;BME280;51342;55.250;37.668;2023-03-13T05:08:52;98814.94;;;-4.81;71.96
45369;BME280;51342;55.250;37.668;2023-03-13T05:11:34;98816.19;;;-4.68;71.91
45369;BME280;51342;55.250;37.668;2023-03-13T05:14:05;98828.88;;;-4.51;71.76
45369;BME280;51342;55.250;37.668;2023-03-13T05:16:59;98829.34;;;-4.38;71.54
45369;BME280;51342;55.250;37.668;2023-03-13T05:19:54;98830.44;;;-4.27;71.56
45369;BME280;51342;55.250;37.668;2023-03-13T05:22:41;98843.56;;;-4.14;71.55
45369;BME280;51342;55.250;37.668;2023-03-13T05:25:36;98843.91;;;-4.02;71.26
45369;BME280;51342;55.250;37.668;2023-03-13T05:28:28;98841.09;;;-3.88;71.07
45369;BME280;51342;55.250;37.668;2023-03-13T05:31:17;98859.22;;;-3.75;70.83
45369;BME280;51342;55.250;37.668;2023-03-13T05:34:08;98867.88;;;-3.64;70.82
45369;BME280;51342;55.250;37.668;2023-03-13T05:37:06;98868.19;;;-3.52;70.81
45369;BME280;51342;55.250;37.668;2023-03-13T05:39:58;98872.66;;;-3.41;70.49
45369;BME280;51342;55.250;37.668;2023-03-13T05:42:58;98868.81;;;-3.29;70.32
45369;BME280;51342;55.250;37.668;2023-03-13T05:45:49;98882.19;;;-3.21;70.11
45369;BME280;51342;55.250;37.668;2023-03-13T05:48:41;98886.78;;;-3.08;70.09
45369;BME280;51342;55.250;37.668;2023-03-13T05:51:38;98893.31;;;-2.93;69.97
45369;BME280;51342;55.250;37.668;2023-03-13T05:54:35;98904.19;;;-2.85;69.68
45369;BME280;51342;55.250;37.668;2023-03-13T05:57:28;98904.19;;;-2.77;69.74
45369;BME280;51342;55.250;37.668;2023-03-13T06:00:37;98895.78;;;-2.67;69.40
45369;BME280;51342;55.250;37.668;2023-03-13T06:03:30;98901.13;;;-2.55;69.37
45369;BME280;51342;55.250;37.668;2023-03-13T06:06:03;98905.28;;;-2.47;69.17
45369;BME280;51342;55.250;37.668;2023-03-13T06:08:40;98904.38;;;-2.39;68.98
45369;BME280;51342;55.250;37.668;2023-03-13T06:11:12;98904.22;;;-2.32;68.92
45369;BME280;51342;55.250;37.668;2023-03-13T06:13:45;98910.44;;;-2.20;68.43
45369;BME280;51342;55.250;37.668;2023-03-13T06:16:38;98914.13;;;-2.16;68.46
45369;BME280;51342;55.250;37.668;2023-03-13T06:19:24;98917.72;;;-2.14;67.94
45369;BME280;51342;55.250;37.668;2023-03-13T06:21:56;98920.50;;;-2.11;67.89
45369;BME280;51342;55.250;37.668;2023-03-13T06:24:29;98929.75;;;-2.11;67.81
45369;BME280;51342;55.250;37.668;2023-03-13T06:27:01;98930.66;;;-2.11;67.72
45369;BME280;51342;55.250;37.668;2023-03-13T06:29:35;98937.94;;;-2.05;67.63
45369;BME280;51342;55.250;37.668;2023-03-13T06:32:09;98939.88;;;-2.03;67.49
45369;BME280;51342;55.250;37.668;2023-03-13T06:34:43;98941.78;;;-2.00;67.58
45369;BME280;51342;55.250;37.668;2023-03-13T06:37:16;98949.69;;;-1.97;67.08
45369;BME280;51342;55.250;37.668;2023-03-13T06:39:48;98938.81;;;-1.96;67.22
45369;BME280;51342;55.250;37.668;2023-03-13T06:42:19;98943.09;;;-1.87;67.11
45369;BME280;51342;55.250;37.668;2023-03-13T06:44:54;98942.47;;;-1.84;66.84
45369;BME280;51342;55.250;37.668;2023-03-13T06:47:25;98950.31;;;-1.72;66.87
45369;BME280;51342;55.250;37.668;2023-03-13T06:49:59;98947.78;;;-1.72;66.51
45369;BME280;51342;55.250;37.668;2023-03-13T06:52:32;98957.00;;;-1.64;66.57
45369;BME280;51342;55.250;37.668;2023-03-13T06:55:05;98957.56;;;-1.58;66.32
45369;BME280;51342;55.250;37.668;2023-03-13T06:57:40;98966.88;;;-1.48;66.22
45369;BME280;51342;55.250;37.668;2023-03-13T07:00:13;98959.66;;;-1.35;65.90
45369;BME280;51342;55.250;37.668;2023-03-13T07:02:46;98965.09;;;-1.22;65.32
45369;BME280;51342;55.250;37.668;2023-03-13T07:05:19;98964.41;;;-1.11;65.60
45369;BME280;51342;55.250;37.668;2023-03-13T07:07:53;98967.47;;;-0.96;65.37
45369;BME280;51342;55.250;37.668;2023-03-13T07:10:32;98969.31;;;-0.85;65.19
45369;BME280;51342;55.250;37.668;2023-03-13T07:13:06;98970.75;;;-0.78;64.67
45369;BME280;51342;55.250;37.668;2023-03-13T07:15:41;98977.13;;;-0.73;64.67
45369;BME280;51342;55.250;37.668;2023-03-13T07:18:17;98976.03;;;-0.66;64.87
45369;BME280;51342;55.250;37.668;2023-03-13T07:20:55;98984.59;;;-0.74;64.36
45369;BME280;51342;55.250;37.668;2023-03-13T07:23:28;98986.13;;;-0.76;64.44
45369;BME280;51342;55.250;37.668;2023-03-13T07:26:04;98985.22;;;-0.77;64.70
45369;BME280;51342;55.250;37.668;2023-03-13T07:28:37;98994.41;;;-0.69;64.46
45369;BME280;51342;55.250;37.668;2023-03-13T07:31:18;99004.84;;;-0.66;64.23
45369;BME280;51342;55.250;37.668;2023-03-13T07:33:55;99008.94;;;-0.58;63.79
45369;BME280;51342;55.250;37.668;2023-03-13T07:36:30;99012.00;;;-0.62;63.72
45369;BME280;51342;55.250;37.668;2023-03-13T07:39:03;99016.91;;;-0.63;63.28
45369;BME280;51342;55.250;37.668;2023-03-13T07:41:37;99021.47;;;-0.50;63.53
45369;BME280;51342;55.250;37.668;2023-03-13T07:44:12;99026.41;;;-0.33;63.13
45369;BME280;51342;55.250;37.668;2023-03-13T07:46:44;99022.63;;;-0.18;63.12
45369;BME280;51342;55.250;37.668;2023-03-13T07:49:19;99024.88;;;-0.02;62.78
45369;BME280;51342;55.250;37.668;2023-03-13T07:51:53;99028.28;;;0.17;62.26
45369;BME280;51342;55.250;37.668;2023-03-13T07:54:27;99027.19;;;0.34;61.74
45369;BME280;51342;55.250;37.668;2023-03-13T07:57:02;99031.00;;;0.39;61.56
45369;BME280;51342;55.250;37.668;2023-03-13T07:59:37;99028.34;;;0.48;61.65
45369;BME280;51342;55.250;37.668;2023-03-13T08:02:12;99025.19;;;0.61;61.41
45369;BME280;51342;55.250;37.668;2023-03-13T08:04:51;99033.63;;;0.70;61.07
45369;BME280;51342;55.250;37.668;2023-03-13T08:07:26;99030.03;;;0.78;61.18
45369;BME280;51342;55.250;37.668;2023-03-13T08:10:02;99029.53;;;0.72;60.73
45369;BME280;51342;55.250;37.668;2023-03-13T08:12:34;99031.44;;;0.64;60.93
45369;BME280;51342;55.250;37.668;2023-03-13T08:15:10;99031.31;;;0.73;60.74
45369;BME280;51342;55.250;37.668;2023-03-13T08:17:48;99030.69;;;0.75;60.81
45369;BME280;51342;55.250;37.668;2023-03-13T08:20:23;99036.78;;;0.77;60.07
45369;BME280;51342;55.250;37.668;2023-03-13T08:22:56;99038.44;;;0.77;60.64
45369;BME280;51342;55.250;37.668;2023-03-13T08:25:29;99034.13;;;0.76;60.50
45369;BME280;51342;55.250;37.668;2023-03-13T08:28:03;99044.19;;;0.85;60.27
45369;BME280;51342;55.250;37.668;2023-03-13T08:30:34;99046.88;;;0.86;60.35
45369;BME280;51342;55.250;37.668;2023-03-13T08:33:09;99048.28;;;0.93;59.93
45369;BME280;51342;55.250;37.668;2023-03-13T08:35:43;99052.34;;;1.01;59.87
45369;BME280;51342;55.250;37.668;2023-03-13T08:38:16;99053.75;;;1.08;60.26
45369;BME280;51342;55.250;37.668;2023-03-13T08:40:55;99052.25;;;1.10;59.90
45369;BME280;51342;55.250;37.668;2023-03-13T08:43:31;99059.59;;;1.06;59.71
45369;BME280;51342;55.250;37.668;2023-03-13T08:46:04;99058.84;;;1.08;60.18
45369;BME280;51342;55.250;37.668;2023-03-13T08:48:40;99065.09;;;1.11;59.91
45369;BME280;51342;55.250;37.668;2023-03-13T08:51:14;99070.97;;;1.10;59.83
45369;BME280;51342;55.250;37.668;2023-03-13T08:53:48;99075.41;;;1.13;59.72
45369;BME280;51342;55.250;37.668;2023-03-13T08:56:26;99070.97;;;1.10;59.83
45369;BME280;51342;55.250;37.668;2023-03-13T08:59:02;99078.59;;;1.10;59.90
45369;BME280;51342;55.250;37.668;2023-03-13T09:01:38;99071.72;;;0.99;59.80
45369;BME280;51342;55.250;37.668;2023-03-13T09:04:10;99076.94;;;1.00;60.09
45369;BME280;51342;55.250;37.668;2023-03-13T09:06:46;99075.41;;;1.13;59.88
45369;BME280;51342;55.250;37.668;2023-03-13T09:09:22;99076.56;;;1.26;59.65
45369;BME280;51342;55.250;37.668;2023-03-13T09:11:58;99081.41;;;1.33;58.84
45369;BME280;51342;55.250;37.668;2023-03-13T09:14:32;99087.50;;;1.36;58.84
45369;BME280;51342;55.250;37.668;2023-03-13T09:17:07;99088.94;;;1.42;59.06
45369;BME280;51342;55.250;37.668;2023-03-13T09:19:40;99095.81;;;1.53;58.88
45369;BME280;51342;55.250;37.668;2023-03-13T09:22:13;99103.69;;;1.67;58.57
45369;BME280;51342;55.250;37.668;2023-03-13T09:24:48;99102.16;;;1.69;58.65
45369;BME280;51342;55.250;37.668;2023-03-13T09:27:26;99117.44;;;1.58;58.91
45369;BME280;51342;55.250;37.668;2023-03-13T09:29:59;99120.03;;;1.38;59.21
45369;BME280;51342;55.250;37.668;2023-03-13T09:32:35;99118.22;;;1.27;59.10
45369;BME280;51342;55.250;37.668;2023-03-13T09:35:10;99128.78;;;1.11;59.17
45369;BME280;51342;55.250;37.668;2023-03-13T09:37:44;99125.34;;;1.11;59.18
45369;BME280;51342;55.250;37.668;2023-03-13T09:40:21;99114.28;;;1.20;59.04
45369;BME280;51342;55.250;37.668;2023-03-13T09:42:59;99124.88;;;1.25;58.68
45369;BME280;51342;55.250;37.668;2023-03-13T09:45:37;99129.97;;;1.25;58.90
45369;BME280;51342;55.250;37.668;2023-03-13T09:48:23;99129.97;;;1.25;59.02
45369;BME280;51342;55.250;37.668;2023-03-13T09:54:01;99134.78;;;1.22;58.75
45369;BME280;51342;55.250;37.668;2023-03-13T09:57:14;99133.25;;;1.14;59.13
45369;BME280;51342;55.250;37.668;2023-03-13T10:00:06;99136.19;;;1.08;59.41
45369;BME280;51342;55.250;37.668;2023-03-13T10:06:11;99131.59;;;1.14;59.47
45369;BME280;51342;55.250;37.668;2023-03-13T10:08:49;99154.28;;;1.21;59.42
45369;BME280;51342;55.250;37.668;2023-03-13T10:11:37;99149.28;;;1.13;59.64
45369;BME280;51342;55.250;37.668;2023-03-13T10:14:42;99150.78;;;1.00;59.76
45369;BME280;51342;55.250;37.668;2023-03-13T10:22:50;99166.25;;;0.73;60.35
45369;BME280;51342;55.250;37.668;2023-03-13T10:25:27;99174.88;;;0.65;60.30
45369;BME280;51342;55.250;37.668;2023-03-13T10:28:09;99181.09;;;0.58;60.47
45369;BME280;51342;55.250;37.668;2023-03-13T10:30:49;99177.59;;;0.47;60.52
45369;BME280;51342;55.250;37.668;2023-03-13T10:33:33;99181.88;;;0.38;60.87
45369;BME280;51342;55.250;37.668;2023-03-13T10:36:08;99188.50;;;0.36;61.01
45369;BME280;51342;55.250;37.668;2023-03-13T10:38:51;99191.25;;;0.29;60.87
45369;BME280;51342;55.250;37.668;2023-03-13T10:41:32;99192.97;;;0.20;61.23
45369;BME280;51342;55.250;37.668;2023-03-13T10:44:21;99194.97;;;0.14;61.48
45369;BME280;51342;55.250;37.668;2023-03-13T10:46:59;99191.53;;;0.13;61.45
45369;BME280;51342;55.250;37.668;2023-03-13T10:49:49;99191.41;;;0.12;61.63
45369;BME280;51342;55.250;37.668;2023-03-13T10:52:41;99191.66;;;0.15;61.43
45369;BME280;51342;55.250;37.668;2023-03-13T10:55:22;99189.88;;;0.33;61.53
45369;BME280;51342;55.250;37.668;2023-03-13T11:00:34;99187.50;;;0.44;61.40
45369;BME280;51342;55.250;37.668;2023-03-13T11:03:24;99194.38;;;0.45;61.29
45369;BME280;51342;55.250;37.668;2023-03-13T11:06:02;99192.41;;;0.51;61.27
45369;BME280;51342;55.250;37.668;2023-03-13T11:08:40;99206.13;;;0.53;61.38
45369;BME280;51342;55.250;37.668;2023-03-13T11:11:19;99209.84;;;0.57;61.13
45369;BME280;51342;55.250;37.668;2023-03-13T11:13:52;99206.97;;;0.63;60.64
45369;BME280;51342;55.250;37.668;2023-03-13T11:16:28;99205.91;;;0.61;60.69
45369;BME280;51342;55.250;37.668;2023-03-13T11:25:20;99222.13;;;0.42;61.76
45369;BME280;51342;55.250;37.668;2023-03-13T11:39:41;99241.72;;;0.24;62.90
45369;BME280;51342;55.250;37.668;2023-03-13T11:51:16;99255.72;;;-0.08;65.01
45369;BME280;51342;55.250;37.668;2023-03-13T11:54:32;99260.03;;;-0.26;65.21
45369;BME280;51342;55.250;37.668;2023-03-13T11:58:00;99265.06;;;-0.45;65.74
45369;BME280;51342;55.250;37.668;2023-03-13T12:00:48;99253.91;;;-0.56;66.16
45369;BME280;51342;55.250;37.668;2023-03-13T12:09:32;99279.06;;;-0.76;67.41
45369;BME280;51342;55.250;37.668;2023-03-13T12:15:19;99289.75;;;-0.97;67.74
45369;BME280;51342;55.250;37.668;2023-03-13T12:18:02;99287.69;;;-1.01;68.32
45369;BME280;51342;55.250;37.668;2023-03-13T12:26:15;99288.97;;;-0.88;68.69
45369;BME280;51342;55.250;37.668;2023-03-13T12:29:16;99283.31;;;-0.94;68.62
45369;BME280;51342;55.250;37.668;2023-03-13T12:32:12;99274.09;;;-1.02;68.64
45369;BME280;51342;55.250;37.668;2023-03-13T12:34:59;99278.13;;;-1.04;68.57
45369;BME280;51342;55.250;37.668;2023-03-13T12:37:47;99277.84;;;-1.07;68.34
45369;BME280;51342;55.250;37.668;2023-03-13T12:48:59;99282.75;;;-1.09;68.23
45369;BME280;51342;55.250;37.668;2023-03-13T12:59:47;99274.09;;;-1.02;67.51
45369;BME280;51342;55.250;37.668;2023-03-13T13:02:28;99283.50;;;-1.01;67.28
45369;BME280;51342;55.250;37.668;2023-03-13T13:05:04;99286.31;;;-0.98;67.25
45369;BME280;51342;55.250;37.668;2023-03-13T13:07:37;99293.47;;;-0.94;67.12
45369;BME280;51342;55.250;37.668;2023-03-13T13:18:32;99290.25;;;-0.74;65.82
45369;BME280;51342;55.250;37.668;2023-03-13T13:23:51;99298.38;;;-0.78;65.27
45369;BME280;51342;55.250;37.668;2023-03-13T13:31:59;99300.38;;;-1.01;64.52
45369;BME280;51342;55.250;37.668;2023-03-13T13:37:23;99305.19;;;-1.13;63.97
45369;BME280;51342;55.250;37.668;2023-03-13T13:40:30;99304.44;;;-1.29;64.25
45369;BME280;51342;55.250;37.668;2023-03-13T13:43:04;99310.69;;;-1.26;64.04
45369;BME280;51342;55.250;37.668;2023-03-13T13:49:10;99318.91;;;-1.37;63.65
45369;BME280;51342;55.250;37.668;2023-03-13T13:57:22;99343.53;;;-1.62;64.36
45369;BME280;51342;55.250;37.668;2023-03-13T14:00:18;99355.19;;;-1.55;63.86
45369;BME280;51342;55.250;37.668;2023-03-13T14:02:58;99356.53;;;-1.50;63.46
45369;BME280;51342;55.250;37.668;2023-03-13T14:05:34;99350.28;;;-1.45;63.90
45369;BME280;51342;55.250;37.668;2023-03-13T14:08:19;99353.09;;;-1.42;63.42
45369;BME280;51342;55.250;37.668;2023-03-13T14:14:12;99369.53;;;-1.39;63.66
45369;BME280;51342;55.250;37.668;2023-03-13T14:16:49;99371.00;;;-1.32;63.65
45369;BME280;51342;55.250;37.668;2023-03-13T14:19:45;99367.88;;;-1.38;64.01
45369;BME280;51342;55.250;37.668;2023-03-13T14:22:23;99370.41;;;-1.38;64.05
45369;BME280;51342;55.250;37.668;2023-03-13T14:24:57;99375.91;;;-1.42;64.45
45369;BME280;51342;55.250;37.668;2023-03-13T14:27:28;99370.41;;;-1.47;64.37
45369;BME280;51342;55.250;37.668;2023-03-13T14:30:04;99378.31;;;-1.52;64.78
45369;BME280;51342;55.250;37.668;2023-03-13T14:32:44;99388.28;;;-1.54;65.04
45369;BME280;51342;55.250;37.668;2023-03-13T14:35:20;99384.72;;;-1.56;65.14
45369;BME280;51342;55.250;37.668;2023-03-13T14:38:00;99394.28;;;-1.62;65.53
45369;BME280;51342;55.250;37.668;2023-03-13T14:40:37;99396.66;;;-1.64;65.73
45369;BME280;51342;55.250;37.668;2023-03-13T14:43:35;99400.38;;;-1.69;66.06
45369;BME280;51342;55.250;37.668;2023-03-13T14:46:19;99407.22;;;-1.68;66.23
45369;BME280;51342;55.250;37.668;2023-03-13T14:48:55;99405.91;;;-1.64;66.56
45369;BME280;51342;55.250;37.668;2023-03-13T14:51:32;99409.63;;;-1.69;66.84
45369;BME280;51342;55.250;37.668;2023-03-13T14:54:25;99410.34;;;-1.79;66.83
45369;BME280;51342;55.250;37.668;2023-03-13T14:57:25;99416.72;;;-1.91;67.16
45369;BME280;51342;55.250;37.668;2023-03-13T15:00:39;99419.53;;;-1.97;67.48
45369;BME280;51342;55.250;37.668;2023-03-13T15:03:29;99424.25;;;-2.08;67.53
45369;BME280;51342;55.250;37.668;2023-03-13T15:09:39;99426.25;;;-2.30;67.85
45369;BME280;51342;55.250;37.668;2023-03-13T15:11:54;99434.16;;;-2.52;67.63
45369;BME280;51342;55.250;37.668;2023-03-13T15:14:39;99437.81;;;-2.65;67.72
45369;BME280;51342;55.250;37.668;2023-03-13T15:17:26;99438.63;;;-2.74;67.87
45369;BME280;51342;55.250;37.668;2023-03-13T15:20:01;99437.75;;;-2.74;68.07
45369;BME280;51342;55.250;37.668;2023-03-13T15:22:39;99450.75;;;-2.71;67.80
45369;BME280;51342;55.250;37.668;2023-03-13T15:25:20;99451.78;;;-2.69;67.99
45369;BME280;51342;55.250;37.668;2023-03-13T15:27:55;99453.75;;;-2.67;67.84
45369;BME280;51342;55.250;37.668;2023-03-13T15:30:29;99460.03;;;-2.79;67.77
45369;BME280;51342;55.250;37.668;2023-03-13T15:33:04;99458.03;;;-2.90;67.78
45369;BME280;51342;55.250;37.668;2023-03-13T15:35:42;99467.00;;;-3.01;67.69
45369;BME280;51342;55.250;37.668;2023-03-13T15:38:19;99464.09;;;-3.12;67.84
45369;BME280;51342;55.250;37.668;2023-03-13T15:40:55;99472.16;;;-3.24;68.06
45369;BME280;51342;55.250;37.668;2023-03-13T15:43:28;99466.47;;;-3.30;67.85
45369;BME280;51342;55.250;37.668;2023-03-13T15:46:08;99472.19;;;-3.39;67.87
45369;BME280;51342;55.250;37.668;2023-03-13T15:48:43;99472.97;;;-3.48;67.80